UTA402 UUWW-UMMS
Flight info
| Callsign | UTA402 |
|---|---|
| Flight time | N/A |
| Altitude | 36000 |
| Route | POKAG3D POKAG N858 VEPIS T526 RUHAL RUHAL2H |
| Aircraft | B735/M-SDE2E3FHIRW/S |
Departure
| Time | 2026-04-28 15:34 |
|---|---|
| Airport | Vnukovo International Airport (UUWW) |
Arrival
| Time | N/A |
|---|---|
| Airport | Minsk National Airport (UMMS) |
| Time | Latitude | Longitude | Altitude | Speed | Heading |
|---|---|---|---|---|---|
| 2026-04-28 14:37 | 55.60020 | 37.28001 | 692 ft | 0 kts | 19° |
| 2026-04-28 15:26 | 55.60031 | 37.28008 | 692 ft | 4 kts | 19° |
| 2026-04-28 15:26 | 55.60073 | 37.28016 | 692 ft | 7 kts | 328° |
| 2026-04-28 15:26 | 55.60110 | 37.27925 | 692 ft | 9 kts | 278° |
| 2026-04-28 15:27 | 55.60084 | 37.27837 | 692 ft | 5 kts | 227° |
| 2026-04-28 15:27 | 55.60048 | 37.27772 | 692 ft | 6 kts | 208° |
| 2026-04-28 15:27 | 55.60004 | 37.27795 | 692 ft | 3 kts | 122° |
| 2026-04-28 15:27 | 55.59979 | 37.27848 | 692 ft | 8 kts | 130° |
| 2026-04-28 15:28 | 55.59947 | 37.27977 | 692 ft | 14 kts | 107° |
| 2026-04-28 15:28 | 55.59936 | 37.28151 | 692 ft | 11 kts | 88° |
| 2026-04-28 15:28 | 55.59940 | 37.28243 | 692 ft | 5 kts | 84° |
| 2026-04-28 15:29 | 55.59900 | 37.28387 | 692 ft | 4 kts | 141° |
| 2026-04-28 15:29 | 55.59870 | 37.28437 | 692 ft | 7 kts | 116° |
| 2026-04-28 15:29 | 55.59885 | 37.28566 | 692 ft | 14 kts | 69° |
| 2026-04-28 15:30 | 55.59928 | 37.28762 | 692 ft | 8 kts | 68° |
| 2026-04-28 15:30 | 55.59948 | 37.28855 | 692 ft | 7 kts | 75° |
| 2026-04-28 15:30 | 55.59923 | 37.28932 | 692 ft | 6 kts | 137° |
| 2026-04-28 15:30 | 55.59918 | 37.28939 | 692 ft | 0 kts | 144° |
| 2026-04-28 15:32 | 55.59917 | 37.28941 | 692 ft | 1 kts | 144° |
| 2026-04-28 15:32 | 55.59906 | 37.28950 | 692 ft | 3 kts | 158° |
| 2026-04-28 15:32 | 55.59850 | 37.28977 | 692 ft | 7 kts | 166° |
| 2026-04-28 15:32 | 55.59808 | 37.28989 | 692 ft | 3 kts | 198° |
| 2026-04-28 15:33 | 55.59784 | 37.28937 | 692 ft | 7 kts | 249° |
| 2026-04-28 15:33 | 55.59734 | 37.28718 | 692 ft | 46 kts | 248° |
| 2026-04-28 15:33 | 55.59513 | 37.27742 | 692 ft | 125 kts | 249° |
| 2026-04-28 15:33 | 55.59132 | 37.26006 | 858 ft | 172 kts | 250° |
| 2026-04-28 15:34 | 55.58740 | 37.24087 | 1801 ft | 167 kts | 251° |
| 2026-04-28 15:34 | 55.58291 | 37.22105 | 2397 ft | 185 kts | 242° |
| 2026-04-28 15:34 | 55.57424 | 37.20275 | 2849 ft | 211 kts | 225° |
| 2026-04-28 15:34 | 55.56432 | 37.18322 | 3441 ft | 217 kts | 235° |
| 2026-04-28 15:35 | 55.55521 | 37.16207 | 4276 ft | 221 kts | 235° |
| 2026-04-28 15:35 | 55.54864 | 37.11080 | 6079 ft | 223 kts | 270° |
| 2026-04-28 15:35 | 55.54852 | 37.08384 | 6940 ft | 224 kts | 270° |
| 2026-04-28 15:36 | 55.55129 | 37.05729 | 7717 ft | 227 kts | 296° |
| 2026-04-28 15:36 | 55.56144 | 37.03641 | 8449 ft | 233 kts | 325° |
| 2026-04-28 15:36 | 55.57696 | 37.02736 | 8981 ft | 246 kts | 356° |
| 2026-04-28 15:36 | 55.59411 | 37.02692 | 9457 ft | 251 kts | 356° |
| 2026-04-28 15:37 | 55.61176 | 37.02666 | 9740 ft | 255 kts | 356° |
| 2026-04-28 15:37 | 55.62958 | 37.02649 | 9850 ft | 257 kts | 356° |
| 2026-04-28 15:37 | 55.64689 | 37.02305 | 9828 ft | 252 kts | 336° |
| 2026-04-28 15:37 | 55.65780 | 37.01528 | 9820 ft | 260 kts | 335° |
| 2026-04-28 15:38 | 55.68068 | 36.99844 | 9785 ft | 271 kts | 335° |
| 2026-04-28 15:38 | 55.69819 | 36.98559 | 9806 ft | 273 kts | 335° |
| 2026-04-28 15:38 | 55.71567 | 36.97276 | 9825 ft | 274 kts | 335° |
| 2026-04-28 15:38 | 55.73322 | 36.95987 | 9830 ft | 275 kts | 335° |
| 2026-04-28 15:39 | 55.75106 | 36.94629 | 9995 ft | 278 kts | 334° |
| 2026-04-28 15:39 | 55.76865 | 36.93283 | 10473 ft | 279 kts | 334° |
| 2026-04-28 15:39 | 55.78641 | 36.91924 | 10979 ft | 279 kts | 334° |
| 2026-04-28 15:39 | 55.80359 | 36.90410 | 11422 ft | 277 kts | 322° |
| 2026-04-28 15:40 | 55.81657 | 36.87944 | 11712 ft | 276 kts | 300° |
| 2026-04-28 15:40 | 55.82342 | 36.84705 | 11761 ft | 287 kts | 282° |
| 2026-04-28 15:40 | 55.82765 | 36.81165 | 11852 ft | 297 kts | 282° |
| 2026-04-28 15:40 | 55.83184 | 36.77549 | 12074 ft | 299 kts | 279° |
| 2026-04-28 15:41 | 55.83165 | 36.73877 | 12171 ft | 298 kts | 259° |
| 2026-04-28 15:41 | 55.82435 | 36.70422 | 12169 ft | 297 kts | 246° |
| 2026-04-28 15:41 | 55.81535 | 36.67194 | 12156 ft | 290 kts | 246° |
| 2026-04-28 15:41 | 55.80661 | 36.64067 | 12132 ft | 273 kts | 246° |
| 2026-04-28 15:42 | 55.79843 | 36.61139 | 12097 ft | 251 kts | 246° |
| 2026-04-28 15:42 | 55.79125 | 36.58571 | 12046 ft | 224 kts | 246° |
| 2026-04-28 15:42 | 55.78477 | 36.56262 | 11949 ft | 189 kts | 247° |
| 2026-04-28 15:42 | 55.78014 | 36.54540 | 10902 ft | 96 kts | 230° |
| 2026-04-28 15:43 | 55.77850 | 36.54227 | 8248 ft | 137 kts | 161° |
| 2026-04-28 15:43 | 55.77670 | 36.54324 | 5393 ft | 122 kts | 333° |
| 2026-04-28 15:43 | 55.77733 | 36.54335 | 2839 ft | 97 kts | 167° |